Terminal Aerodrome Forecast
Issued by NWS Charleston, WV

Current Version | Previous Version | Graphics & Text | Print | Product List | Glossary On
Versions: 1 2 3 4 5 6 7 8 9 10 11 12 13 14 15 16 17 18 19 20 21 22 23
000
FTUS41 KRLX 241700 RRA
TAFCRW
TAF
KCRW 241741Z 2418/2518 24018G40KT P6SM BKN060
     FM242000 24017G26KT P6SM BKN060
     FM242200 24012G18KT P6SM FEW050
     FM250100 25008KT P6SM SCT035
     FM250400 VRB04KT P6SM BKN035=

USA.gov is the U.S. government's official web portal to all federal, state and local government web resources and services.